Terminal Aerodrome Forecast
Issued by NWS

Home | Current Version | Previous Version | Text Only | Print | Product List | Glossary On
Versions: 1 2 3 4 5 6 7 8 9 10 11 12 13 14
000
FTUS45 KRIW 012325
TAFCPR
TAF
KCPR 012325Z 0200/0224 25015G25KT P6SM VCTS SCT090CB BKN120
     FM020500 22010G18KT P6SM SCT100
     FM021800 22020G28KT P6SM FEW120=

USA.gov is the U.S. government's official web portal to all federal, state and local government web resources and services.